Time;durP1;ratioP1;P1;durP2;ratioP2;P2;SDS_P1;SDS_P2;PMS_P1;PMS_P2;Temp;Humidity;BMP_temperature;BMP_pressure;BME280_temperature;BME280_humidity;BME280_pressure;Samples;Min_cycle;Max_cycle;Signal;HPM_P1;HPM_P2
2021/12/11 00:03:18;;;;;;;26.07;19.25;;;;;;;6.86;100.00;100464.84;1647557;87;21820;-81
2021/12/11 00:06:32;;;;;;;25.02;16.95;;;;;;;6.85;100.00;100460.42;1652823;85;21343;-81
2021/12/11 00:09:43;;;;;;;28.00;19.95;;;;;;;6.84;100.00;100473.66;1677665;85;21225;-81
2021/12/11 00:13:03;;;;;;;28.07;19.98;;;;;;;6.83;100.00;100452.92;1677610;85;21327;-81
2021/12/11 00:16:09;;;;;;;27.97;18.57;;;;;;;6.83;100.00;100459.72;1677815;84;21320;-81
2021/12/11 00:19:19;;;;;;;39.20;31.55;;;;;;;6.82;100.00;100463.92;1677914;85;21340;-82
2021/12/11 00:22:28;;;;;;;23.80;15.45;;;;;;;6.83;100.00;100471.11;1676511;85;21812;-81
2021/12/11 00:25:33;;;;;;;31.60;21.93;;;;;;;6.81;100.00;100456.78;1678582;85;21174;-81
2021/12/11 00:28:38;;;;;;;26.87;19.77;;;;;;;6.80;100.00;100460.01;1678731;85;21176;-81
2021/12/11 00:31:46;;;;;;;38.23;30.97;;;;;;;6.80;100.00;100461.88;1677349;85;21340;-82
2021/12/11 00:34:52;;;;;;;22.67;15.48;;;;;;;6.77;100.00;100456.72;1678662;85;21201;-81
2021/12/11 00:37:57;;;;;;;27.62;19.85;;;;;;;6.75;100.00;100465.03;1677753;85;21253;-82
2021/12/11 00:41:03;;;;;;;28.62;17.73;;;;;;;6.74;100.00;100474.20;1676396;85;21348;-82
2021/12/11 00:44:08;;;;;;;24.98;17.48;;;;;;;6.70;100.00;100465.98;1678673;85;21181;-81
2021/12/11 00:47:27;;;;;;;30.05;21.87;;;;;;;6.66;100.00;100456.41;1678633;85;21681;-81
2021/12/11 00:50:36;;;;;;;32.08;21.73;;;;;;;6.63;100.00;100455.33;1677067;85;21392;-81
2021/12/11 00:53:49;;;;;;;30.90;23.90;;;;;;;6.63;100.00;100458.94;1677832;85;21332;-82
2021/12/11 00:56:55;;;;;;;28.67;22.20;;;;;;;6.66;100.00;100466.77;1678679;85;21245;-81
2021/12/11 01:00:16;;;;;;;28.73;20.30;;;;;;;6.66;100.00;100449.61;1678675;85;21728;-81
2021/12/11 01:03:25;;;;;;;31.62;21.30;;;;;;;6.64;100.00;100439.41;1678705;85;21174;-82
2021/12/11 01:06:35;;;;;;;29.30;22.87;;;;;;;6.65;100.00;100445.19;1676578;85;21347;-82
2021/12/11 01:09:55;;;;;;;34.88;23.30;;;;;;;6.65;100.00;100443.83;1648120;87;21343;-81
2021/12/11 01:13:05;;;;;;;33.23;20.57;;;;;;;6.65;100.00;100442.47;1647232;87;21355;-82
2021/12/11 01:16:14;;;;;;;40.85;28.12;;;;;;;6.70;100.00;100435.23;1648202;85;21287;-82
2021/12/11 01:19:21;;;;;;;34.25;25.17;;;;;;;6.75;100.00;100449.23;1646838;87;21335;-82
2021/12/11 01:22:35;;;;;;;58.10;41.42;;;;;;;6.79;100.00;100453.38;1647231;87;21407;-82
2021/12/11 01:25:33;;;;;;;34.40;24.75;;;;;;;6.77;100.00;100443.98;1648938;87;21264;-82
2021/12/11 01:28:39;;;;;;;46.13;36.30;;;;;;;6.75;100.00;100427.48;1647656;87;21351;-82
2021/12/11 01:31:46;;;;;;;35.83;23.85;;;;;;;6.71;100.00;100428.78;1647575;87;22085;-81
2021/12/11 01:34:51;;;;;;;27.05;17.17;;;;;;;6.65;100.00;100422.08;1647755;87;21399;-82
2021/12/11 01:37:58;;;;;;;37.83;22.40;;;;;;;6.62;100.00;100435.95;1648134;87;21339;-82
2021/12/11 01:41:12;;;;;;;31.82;21.35;;;;;;;6.60;100.00;100432.04;1649133;87;21808;-82
2021/12/11 01:44:22;;;;;;;36.75;28.52;;;;;;;6.59;100.00;100430.33;1648244;87;21356;-82
2021/12/11 01:47:40;;;;;;;33.28;20.05;;;;;;;6.60;100.00;100423.03;1649253;87;21805;-82
2021/12/11 01:50:52;;;;;;;45.92;33.10;;;;;;;6.59;100.00;100430.84;1649064;87;21859;-82
2021/12/11 01:54:04;;;;;;;34.75;23.67;;;;;;;6.57;100.00;100423.31;1647816;87;21245;-81
2021/12/11 01:57:21;;;;;;;29.95;19.70;;;;;;;6.53;100.00;100425.97;1648063;87;21886;-82
2021/12/11 02:00:33;;;;;;;36.55;25.55;;;;;;;6.48;100.00;100421.48;1648034;87;21323;-82
2021/12/11 02:03:39;;;;;;;35.43;22.02;;;;;;;6.43;100.00;100429.22;1649112;87;21284;-81
2021/12/11 02:06:46;;;;;;;36.23;21.30;;;;;;;6.37;100.00;100426.59;1648980;87;21859;-82
2021/12/11 02:09:57;;;;;;;35.85;24.70;;;;;;;6.30;100.00;100430.88;1667787;85;21355;-82
2021/12/11 02:13:00;;;;;;;35.23;22.42;;;;;;;6.26;100.00;100420.83;1676994;85;21217;-82
2021/12/11 02:16:05;;;;;;;38.67;23.85;;;;;;;6.22;100.00;100430.78;1678615;84;21292;-81
2021/12/11 02:19:32;;;;;;;36.13;21.45;;;;;;;6.16;100.00;100441.70;1678659;85;21189;-82
2021/12/11 02:22:39;;;;;;;61.10;41.30;;;;;;;6.10;100.00;100425.98;1677603;85;21359;-81
2021/12/11 02:25:52;;;;;;;43.48;29.92;;;;;;;6.07;100.00;100428.51;1677699;85;21949;-81
2021/12/11 02:29:05;;;;;;;42.70;24.63;;;;;;;6.04;100.00;100439.65;1677631;85;21863;-82
2021/12/11 02:32:30;;;;;;;43.35;28.95;;;;;;;6.02;100.00;100461.14;1678686;85;21776;-82
2021/12/11 02:35:51;;;;;;;45.35;31.12;;;;;;;5.99;100.00;100438.38;1677782;85;21351;-82
2021/12/11 02:39:08;;;;;;;58.70;48.20;;;;;;;5.97;100.00;100445.28;1678631;85;21225;-81
2021/12/11 02:42:17;;;;;;;36.85;28.35;;;;;;;6.00;100.00;100438.72;1678621;85;21225;-82
2021/12/11 02:45:30;;;;;;;26.95;17.25;;;;;;;6.00;100.00;100425.14;1678805;85;21176;-81
2021/12/11 02:48:40;;;;;;;39.30;24.27;;;;;;;5.94;100.00;100444.73;1678626;85;21732;-81
2021/12/11 02:51:57;;;;;;;;;;;;;;;5.89;100.00;100437.84;1681042;85;21995;-81
2021/12/11 02:55:13;;;;;;;53.85;42.80;;;;;;;5.88;100.00;100452.42;1678589;85;20246;-81
2021/12/11 02:58:23;;;;;;;51.83;42.03;;;;;;;5.88;100.00;100425.27;1678698;85;21296;-82
2021/12/11 03:01:43;;;;;;;24.77;17.62;;;;;;;5.88;100.00;100430.70;1678578;85;21819;-81
2021/12/11 03:04:54;;;;;;;28.73;20.43;;;;;;;5.89;100.00;100437.84;1678003;85;21335;-81
2021/12/11 03:08:01;;;;;;;28.17;19.82;;;;;;;5.86;100.00;100428.61;1676912;85;21285;-82
2021/12/11 03:11:08;;;;;;;26.25;18.92;;;;;;;5.82;100.00;100437.19;1678007;85;21327;-81
2021/12/11 03:14:14;;;;;;;26.07;18.25;;;;;;;5.76;100.00;100441.84;1678643;85;21284;-81
2021/12/11 03:17:19;;;;;;;48.58;37.33;;;;;;;5.69;100.00;100437.95;1677099;84;21387;-81
2021/12/11 03:20:27;;;;;;;36.85;26.50;;;;;;;5.64;100.00;100431.09;1677489;85;21209;-81
2021/12/11 03:23:32;;;;;;;45.50;35.73;;;;;;;5.64;100.00;100427.53;1677203;85;21363;-81
2021/12/11 03:26:38;;;;;;;43.65;28.02;;;;;;;5.67;100.00;100435.91;1677660;85;21614;-78
2021/12/11 03:29:42;;;;;;;36.50;27.52;;;;;;;5.63;100.00;100433.96;1678689;85;21189;-79
2021/12/11 03:32:47;;;;;;;32.73;24.32;;;;;;;5.56;100.00;100439.11;1678743;85;21176;-79
2021/12/11 03:35:46;;;;;;;31.52;24.95;;;;;;;5.52;100.00;100431.39;1677642;85;21867;-79
2021/12/11 03:38:55;;;;;;;34.05;26.20;;;;;;;5.46;100.00;100427.39;1677662;85;21882;-81
2021/12/11 03:42:02;;;;;;;33.88;25.48;;;;;;;5.44;100.00;100424.45;1678665;85;21764;-81
2021/12/11 03:45:07;;;;;;;35.00;26.25;;;;;;;5.38;100.00;100424.52;1676834;85;21355;-81
2021/12/11 03:48:23;;;;;;;48.55;38.95;;;;;;;5.34;100.00;100414.44;1678702;85;21194;-82
2021/12/11 03:51:32;;;;;;;29.35;23.75;;;;;;;5.31;100.00;100416.56;1678721;85;21322;-82
2021/12/11 03:54:38;;;;;;;37.85;32.00;;;;;;;5.30;100.00;100420.28;1677488;85;21890;-81
2021/12/11 03:57:45;;;;;;;37.35;30.30;;;;;;;5.27;100.00;100425.50;1676362;85;21252;-81
2021/12/11 04:01:09;;;;;;;22.90;15.88;;;;;;;5.23;100.00;100432.20;1678748;85;21189;-81
2021/12/11 04:04:19;;;;;;;28.98;19.23;;;;;;;5.17;100.00;100424.59;1678227;85;21355;-81
2021/12/11 04:07:29;;;;;;;26.42;17.37;;;;;;;5.10;100.00;100412.61;1678780;85;21339;-81
2021/12/11 04:10:34;;;;;;;29.15;21.25;;;;;;;5.06;100.00;100424.72;1679293;85;21365;-81
2021/12/11 04:13:40;;;;;;;65.25;57.73;;;;;;;5.02;100.00;100413.78;1677576;85;21686;-81
2021/12/11 04:16:46;;;;;;;69.03;61.10;;;;;;;5.00;100.00;100399.52;1677875;84;21356;-81
2021/12/11 04:19:52;;;;;;;47.90;36.88;;;;;;;4.99;100.00;100384.27;1677660;85;21858;-81
2021/12/11 04:22:57;;;;;;;77.87;62.20;;;;;;;5.01;100.00;100390.39;1676316;85;21745;-82
2021/12/11 04:26:04;;;;;;;48.83;41.20;;;;;;;4.99;100.00;100395.11;1677624;85;21375;-81
2021/12/11 04:29:11;;;;;;;36.85;26.05;;;;;;;4.99;100.00;100397.81;1676916;85;21245;-81
2021/12/11 04:32:17;;;;;;;41.68;35.92;;;;;;;4.93;100.00;100390.22;1678592;85;21301;-81
2021/12/11 04:35:26;;;;;;;41.15;33.83;;;;;;;4.90;100.00;100371.54;1677661;85;21371;-81
2021/12/11 04:38:29;;;;;;;28.52;17.20;;;;;;;4.85;100.00;100391.78;1660036;85;21320;-81
2021/12/11 04:41:48;;;;;;;37.28;29.30;;;;;;;4.82;100.00;100396.11;1677636;85;21332;-81
2021/12/11 04:44:48;;;;;;;26.93;18.73;;;;;;;4.78;100.00;100393.30;1676584;85;21387;-82
2021/12/11 04:47:58;;;;;;;24.07;15.23;;;;;;;4.75;100.00;100410.33;1676308;85;21213;-82
2021/12/11 04:54:23;;;;;;;38.08;29.40;;;;;;;4.64;100.00;100393.68;1678656;85;21228;-81
2021/12/11 04:57:51;;;;;;;38.58;32.40;;;;;;;4.57;100.00;100378.98;1678761;85;22137;-81
2021/12/11 05:04:37;;;;;;;42.17;31.52;;;;;;;4.46;100.00;100380.41;1678468;85;21324;-81
2021/12/11 05:07:31;;;;;;;29.48;20.68;;;;;;;4.42;100.00;100374.89;1678684;85;21284;-81
2021/12/11 05:10:42;;;;;;;41.15;34.63;;;;;;;4.38;100.00;100379.75;1678642;85;21170;-81
2021/12/11 05:13:42;;;;;;;83.67;71.30;;;;;;;4.38;100.00;100374.83;1677073;85;21252;-81
2021/12/11 05:16:47;;;;;;;35.28;28.25;;;;;;;4.32;100.00;100377.55;1678570;84;21246;-81
2021/12/11 05:19:52;;;;;;;19.40;12.90;;;;;;;4.27;100.00;100375.75;1678639;85;21304;-81
2021/12/11 05:22:57;;;;;;;40.45;32.15;;;;;;;4.23;100.00;100374.30;1678524;85;21181;-81
2021/12/11 05:26:03;;;;;;;22.37;15.68;;;;;;;4.17;100.00;100381.11;1678239;85;21355;-81
2021/12/11 05:29:08;;;;;;;25.08;17.37;;;;;;;4.11;100.00;100384.36;1677568;85;21324;-81
2021/12/11 05:32:17;;;;;;;29.05;21.17;;;;;;;4.08;100.00;100392.73;1678633;85;21190;-82
2021/12/11 05:35:22;;;;;;;39.13;29.55;;;;;;;4.09;100.00;100391.74;1678591;85;21197;-81
2021/12/11 05:38:30;;;;;;;26.50;16.85;;;;;;;4.11;100.00;100391.13;1677267;85;21236;-81
2021/12/11 05:41:35;;;;;;;27.77;20.85;;;;;;;4.10;100.00;100381.30;1678638;85;21229;-81
2021/12/11 05:44:41;;;;;;;21.45;12.40;;;;;;;4.11;100.00;100406.02;1678504;85;21328;-82
2021/12/11 05:47:47;;;;;;;24.75;17.07;;;;;;;4.10;100.00;100417.84;1677566;85;21855;-81
2021/12/11 05:50:56;;;;;;;18.98;12.18;;;;;;;4.12;100.00;100433.45;1678509;85;21300;-81
2021/12/11 05:54:03;;;;;;;23.70;16.55;;;;;;;4.10;100.00;100459.80;1677220;85;21858;-82
2021/12/11 05:57:12;;;;;;;22.82;15.03;;;;;;;4.07;100.00;100454.14;1684098;85;21807;-81
2021/12/11 06:00:18;;;;;;;16.37;10.32;;;;;;;4.03;100.00;100432.88;1679107;84;21314;-81
2021/12/11 06:03:25;;;;;;;30.48;15.32;;;;;;;3.97;100.00;100464.05;1689232;85;21685;-81
2021/12/11 06:06:29;;;;;;;17.25;10.93;;;;;;;3.94;100.00;100462.08;1683425;84;21304;-81
2021/12/11 06:09:35;;;;;;;16.27;10.95;;;;;;;3.93;100.00;100463.08;1682043;84;21268;-81
2021/12/11 06:12:40;;;;;;;16.00;11.53;;;;;;;3.90;100.00;100464.19;1688480;83;21256;-81
2021/12/11 06:15:47;;;;;;;16.73;10.85;;;;;;;3.90;100.00;100463.33;1711937;82;21243;-81
2021/12/11 06:18:53;;;;;;;26.15;16.77;;;;;;;3.89;100.00;100468.38;1715050;83;22437;-81
2021/12/11 06:21:58;;;;;;;17.87;10.53;;;;;;;3.89;100.00;100473.80;1720757;82;21284;-81
2021/12/11 06:25:05;;;;;;;16.52;10.38;;;;;;;3.88;100.00;100480.20;1704256;82;21299;-81
2021/12/11 06:28:12;;;;;;;18.27;11.65;;;;;;;3.87;100.00;100479.34;1703810;82;21327;-81
2021/12/11 06:31:20;;;;;;;17.48;11.80;;;;;;;3.87;100.00;100491.52;1711224;83;21319;-81
2021/12/11 06:34:25;;;;;;;21.05;12.65;;;;;;;3.86;100.00;100472.22;1687182;85;21787;-82
2021/12/11 06:37:31;;;;;;;17.00;12.30;;;;;;;3.87;100.00;100484.77;1714002;83;21288;-81
2021/12/11 06:40:36;;;;;;;20.77;14.25;;;;;;;3.87;100.00;100481.20;1714075;83;21368;-81
2021/12/11 06:43:41;;;;;;;29.37;22.48;;;;;;;3.88;100.00;100481.06;1688818;84;21314;-82
2021/12/11 06:46:48;;;;;;;24.12;14.53;;;;;;;3.93;100.00;100468.49;1704505;82;21516;-81
2021/12/11 06:49:54;;;;;;;14.83;10.60;;;;;;;3.99;100.00;100481.50;1711128;84;21289;-81
2021/12/11 06:53:01;;;;;;;26.20;15.88;;;;;;;4.03;100.00;100492.44;1710724;83;21218;-81
2021/12/11 06:56:05;;;;;;;17.87;11.60;;;;;;;4.08;100.00;100491.05;1696221;83;21293;-81
2021/12/11 06:59:12;;;;;;;19.70;12.63;;;;;;;4.14;100.00;100472.56;1716069;83;21279;-80
2021/12/11 07:02:17;;;;;;;19.95;14.10;;;;;;;4.20;100.00;100481.03;1716033;83;21176;-81
2021/12/11 07:05:23;;;;;;;21.77;15.15;;;;;;;4.23;100.00;100494.29;1716003;83;21279;-81
2021/12/11 07:08:29;;;;;;;18.85;12.33;;;;;;;4.24;100.00;100485.20;1715784;83;21276;-81
2021/12/11 07:11:35;;;;;;;15.75;11.78;;;;;;;4.23;100.00;100489.38;1713495;83;21229;-81
2021/12/11 07:14:39;;;;;;;20.08;12.05;;;;;;;4.24;100.00;100500.09;1680311;85;21899;-81
2021/12/11 07:17:46;;;;;;;16.55;12.40;;;;;;;4.27;100.00;100481.36;1672694;84;21406;-81
2021/12/11 07:20:53;;;;;;;20.77;15.60;;;;;;;4.28;100.00;100489.37;1673152;85;21185;-81
2021/12/11 07:23:59;;;;;;;19.62;14.23;;;;;;;4.29;100.00;100507.33;1674623;85;21377;-81
2021/12/11 07:27:07;;;;;;;22.87;13.65;;;;;;;4.32;100.00;100519.23;1676917;84;21237;-81
2021/12/11 07:30:13;;;;;;;15.30;9.83;;;;;;;4.31;100.00;100513.45;1702815;84;21272;-81
2021/12/11 07:33:19;;;;;;;21.90;13.53;;;;;;;4.27;100.00;100513.35;1701806;84;21320;-81
2021/12/11 07:36:25;;;;;;;20.48;11.88;;;;;;;4.21;100.00;100516.59;1701494;84;21213;-80
2021/12/11 07:39:31;;;;;;;23.27;16.60;;;;;;;4.17;100.00;100500.73;1700370;84;21744;-80
2021/12/11 07:42:36;;;;;;;16.55;11.40;;;;;;;4.18;100.00;100482.14;1700488;84;21319;-81
2021/12/11 07:45:41;;;;;;;15.23;10.75;;;;;;;4.18;100.00;100504.66;1701789;84;21327;-81
2021/12/11 07:48:49;;;;;;;19.37;14.65;;;;;;;4.20;100.00;100510.81;1643806;87;21261;-80
2021/12/11 07:51:54;;;;;;;18.65;13.22;;;;;;;4.25;100.00;100505.02;1644724;87;21363;-81
2021/12/11 07:55:00;;;;;;;17.95;11.03;;;;;;;4.25;100.00;100511.28;1674456;85;21276;-81
2021/12/11 07:58:05;;;;;;;31.37;22.35;;;;;;;4.30;100.00;100500.91;1672821;85;21241;-81
2021/12/11 08:01:14;;;;;;;14.93;10.68;;;;;;;4.39;100.00;100503.83;1672270;85;21252;-81
2021/12/11 08:04:20;;;;;;;20.55;13.10;;;;;;;4.45;100.00;100501.94;1674629;85;21281;-81
2021/12/11 08:07:24;;;;;;;27.80;20.43;;;;;;;4.52;100.00;100477.41;1673276;85;21412;-81
2021/12/11 08:10:31;;;;;;;34.78;29.98;;;;;;;4.61;100.00;100469.80;1672899;85;21464;-81
2021/12/11 08:13:38;;;;;;;18.20;14.30;;;;;;;4.76;100.00;100497.44;1671747;85;21213;-81
2021/12/11 08:16:47;;;;;;;21.87;15.95;;;;;;;4.85;100.00;100502.91;1672949;84;22016;-81
2021/12/11 08:19:52;;;;;;;18.48;9.65;;;;;;;4.87;100.00;100490.06;1673676;85;21339;-81
2021/12/11 08:22:59;;;;;;;16.35;11.57;;;;;;;4.88;100.00;100506.67;1673134;85;21938;-81
2021/12/11 08:26:04;;;;;;;16.35;11.83;;;;;;;4.91;100.00;100496.58;1694223;83;21260;-81
2021/12/11 08:29:12;;;;;;;19.87;12.90;;;;;;;5.00;100.00;100500.69;1698394;83;21307;-80
2021/12/11 08:32:18;;;;;;;23.18;16.50;;;;;;;5.07;100.00;100492.35;1683039;83;21278;-81
2021/12/11 08:35:25;;;;;;;22.27;16.52;;;;;;;5.14;100.00;100489.97;1683314;85;21181;-81
2021/12/11 08:38:30;;;;;;;21.77;13.85;;;;;;;5.21;100.00;100493.84;1666983;86;21721;-81
2021/12/11 08:41:35;;;;;;;21.90;13.98;;;;;;;5.23;100.00;100494.58;1674590;85;21160;-81
2021/12/11 08:44:48;;;;;;;23.80;16.15;;;;;;;5.26;100.00;100509.19;1687464;83;21294;-81
2021/12/11 08:47:48;;;;;;;17.50;11.80;;;;;;;5.22;99.62;100496.93;1701729;84;21353;-81
2021/12/11 08:50:55;;;;;;;27.87;19.30;;;;;;;5.20;100.00;100527.38;1701701;84;21825;-81
2021/12/11 08:54:03;;;;;;;34.57;23.83;;;;;;;5.20;100.00;100516.53;1700261;83;21620;-81
2021/12/11 08:57:12;;;;;;;32.60;18.25;;;;;;;5.19;100.00;100513.97;1700678;83;21307;-81
2021/12/11 09:00:30;;;;;;;21.62;13.20;;;;;;;5.18;100.00;100504.98;1697563;83;21172;-80
2021/12/11 09:03:55;;;;;;;18.73;12.93;;;;;;;5.17;100.00;100514.08;1702060;83;21287;-81
2021/12/11 09:07:05;;;;;;;23.25;12.25;;;;;;;5.18;100.00;100502.27;1674599;85;21286;-81
2021/12/11 09:10:27;;;;;;;20.15;12.75;;;;;;;5.19;100.00;100510.75;1674210;85;21286;-81
2021/12/11 09:13:42;;;;;;;31.12;12.15;;;;;;;5.21;100.00;100510.11;1672964;85;21442;-81
2021/12/11 09:17:00;;;;;;;21.77;12.10;;;;;;;5.27;100.00;100502.80;1694765;84;21381;-81
2021/12/11 09:20:26;;;;;;;19.85;12.50;;;;;;;5.29;100.00;100504.86;1701163;83;21238;-81
2021/12/11 09:23:42;;;;;;;21.50;12.40;;;;;;;5.34;99.90;100503.95;1679456;83;21886;-81
2021/12/11 09:27:20;;;;;;;24.77;12.20;;;;;;;5.37;99.60;100514.53;1670210;83;21300;-81
2021/12/11 09:30:35;;;;;;;23.85;11.90;;;;;;;5.37;98.82;100510.97;1655888;83;21296;-81
2021/12/11 09:33:47;;;;;;;26.57;12.70;;;;;;;5.38;98.96;100501.32;1697174;83;21295;-81
2021/12/11 09:36:57;;;;;;;23.07;12.25;;;;;;;5.41;99.47;100510.17;1691894;83;21208;-81
2021/12/11 09:40:36;;;;;;;39.30;17.55;;;;;;;5.41;99.38;100515.59;1691768;83;21315;-80
2021/12/11 09:43:51;;;;;;;25.95;12.43;;;;;;;5.42;99.30;100512.77;1684306;83;21287;-81
2021/12/11 09:47:01;;;;;;;22.77;11.48;;;;;;;5.45;99.30;100512.97;1690211;83;21273;-81
2021/12/11 09:50:11;;;;;;;24.67;12.05;;;;;;;5.52;99.29;100504.65;1687122;83;21174;-81
2021/12/11 09:53:16;;;;;;;35.75;16.20;;;;;;;5.56;99.30;100510.16;1686675;83;21165;-81
2021/12/11 09:56:28;;;;;;;37.67;19.02;;;;;;;5.58;98.96;100510.36;1691693;83;21263;-81
2021/12/11 09:59:36;;;;;;;33.90;11.43;;;;;;;5.61;98.87;100499.75;1692825;83;21295;-81
2021/12/11 10:02:41;;;;;;;21.55;11.08;;;;;;;5.66;98.66;100487.11;1682486;83;21209;-81
2021/12/11 10:05:55;;;;;;;26.00;12.43;;;;;;;5.68;98.47;100481.89;1694905;83;21157;-81
2021/12/11 10:09:17;;;;;;;21.05;13.38;;;;;;;5.70;98.71;100492.13;1690679;83;21240;-81
2021/12/11 10:12:21;;;;;;;21.45;12.05;;;;;;;5.74;98.47;100489.95;1700095;83;21751;-81
2021/12/11 10:15:25;;;;;;;18.75;12.90;;;;;;;5.81;98.34;100489.77;1704635;83;21299;-81
2021/12/11 10:18:27;;;;;;;25.12;12.00;;;;;;;5.85;98.44;100500.20;1682625;85;21949;-81
2021/12/11 10:21:40;;;;;;;23.15;12.90;;;;;;;5.90;98.26;100503.85;1682328;85;21827;-81
2021/12/11 10:24:47;;;;;;;25.45;13.48;;;;;;;5.91;97.97;100505.56;1681806;85;21791;-81
2021/12/11 10:27:53;;;;;;;22.95;12.58;;;;;;;5.94;97.86;100516.69;1680459;85;21277;-81
2021/12/11 10:31:06;;;;;;;23.07;13.55;;;;;;;5.94;97.49;100527.55;1679775;85;21851;-81
2021/12/11 10:34:16;;;;;;;21.62;11.83;;;;;;;5.96;98.00;100530.96;1682285;85;21291;-81
2021/12/11 10:37:28;;;;;;;18.92;12.13;;;;;;;5.89;97.22;100544.23;1682507;85;21713;-80
2021/12/11 10:40:36;;;;;;;23.32;12.55;;;;;;;5.83;97.59;100546.13;1681339;85;21209;-80
2021/12/11 10:43:53;;;;;;;22.37;12.90;;;;;;;5.79;97.92;100547.42;1682153;85;21177;-81
2021/12/11 10:47:25;;;;;;;27.13;14.23;;;;;;;5.74;97.92;100541.53;1682321;85;21233;-81
2021/12/11 10:50:51;;;;;;;23.83;14.00;;;;;;;5.74;98.73;100546.95;1681400;85;21383;-81
2021/12/11 10:53:58;;;;;;;36.28;14.40;;;;;;;5.79;99.68;100556.92;1682208;85;21335;-81
2021/12/11 10:57:02;;;;;;;30.82;15.28;;;;;;;5.83;99.71;100561.05;1682164;85;21335;-80
2021/12/11 11:00:09;;;;;;;33.08;16.37;;;;;;;5.88;99.69;100556.95;1680579;85;21341;-81
2021/12/11 11:03:16;;;;;;;35.70;17.23;;;;;;;5.96;99.62;100556.25;1682317;85;21177;-80
2021/12/11 11:06:22;;;;;;;49.08;22.82;;;;;;;6.08;99.88;100555.64;1682244;85;21237;-81
2021/12/11 11:09:29;;;;;;;60.33;26.30;;;;;;;6.20;99.10;100574.86;1682315;85;21760;-81
2021/12/11 11:12:34;;;;;;;63.30;27.22;;;;;;;6.26;97.84;100567.52;1682289;85;21280;-81
2021/12/11 11:15:40;;;;;;;72.65;30.68;;;;;;;6.30;97.31;100562.13;1682296;85;21225;-81
2021/12/11 11:18:45;;;;;;;63.25;29.18;;;;;;;6.32;96.59;100552.51;1681954;85;21319;-80
2021/12/11 11:21:56;;;;;;;72.30;30.72;;;;;;;6.33;96.64;100556.94;1682314;85;21205;-81
2021/12/11 11:25:14;;;;;;;57.08;25.90;;;;;;;6.33;96.77;100557.79;1681245;85;21375;-81
2021/12/11 11:28:22;;;;;;;71.17;29.07;;;;;;;6.32;96.67;100560.16;1682382;85;21161;-81
2021/12/11 11:31:34;;;;;;;83.92;33.60;;;;;;;6.32;96.75;100573.73;1682011;85;21355;-81
2021/12/11 11:34:40;;;;;;;83.30;32.53;;;;;;;6.31;96.69;100579.33;1681330;85;21319;-80
2021/12/11 11:37:47;;;;;;;85.38;36.15;;;;;;;6.29;96.53;100578.09;1681280;85;21323;-81
2021/12/11 11:40:57;;;;;;;95.57;39.83;;;;;;;6.31;96.82;100582.05;1680559;85;21240;-81
2021/12/11 11:44:02;;;;;;;86.78;36.65;;;;;;;6.32;96.93;100586.47;1682259;85;21831;-81
2021/12/11 11:47:09;;;;;;;89.05;37.10;;;;;;;6.33;96.96;100594.46;1682322;85;21299;-81
2021/12/11 11:50:19;;;;;;;87.97;35.63;;;;;;;6.34;97.01;100600.25;1681025;85;21228;-81
2021/12/11 11:53:26;;;;;;;61.05;26.35;;;;;;;6.35;97.14;100587.52;1682427;85;21300;-81
2021/12/11 11:56:34;;;;;;;58.02;24.12;;;;;;;6.36;97.17;100602.34;1682212;85;21359;-81
2021/12/11 11:59:39;;;;;;;30.15;15.15;;;;;;;6.36;97.29;100602.34;1681748;85;21375;-81
2021/12/11 12:02:45;;;;;;;18.48;11.05;;;;;;;6.33;96.80;100592.25;1681373;85;21711;-81
2021/12/11 12:05:55;;;;;;;24.25;10.90;;;;;;;6.26;96.39;100590.62;1680069;85;21346;-81
2021/12/11 12:09:05;;;;;;;20.88;10.53;;;;;;;6.22;96.59;100597.33;1681943;85;21197;-81
2021/12/11 12:12:10;;;;;;;23.93;10.57;;;;;;;6.20;96.63;100593.88;1681926;85;21711;-80
2021/12/11 12:15:19;;;;;;;23.45;11.00;;;;;;;6.18;96.84;100602.68;1682209;85;21275;-81
2021/12/11 12:18:27;;;;;;;23.73;13.05;;;;;;;6.15;97.10;100607.88;1681077;84;21233;-81
2021/12/11 12:21:33;;;;;;;23.12;11.12;;;;;;;6.13;97.54;100605.81;1681517;85;21406;-81
2021/12/11 12:24:41;;;;;;;19.15;9.78;;;;;;;6.07;97.10;100620.44;1682047;85;21324;-81
2021/12/11 12:27:47;;;;;;;21.27;10.32;;;;;;;6.02;97.48;100635.82;1682692;85;21656;-81
2021/12/11 12:31:03;;;;;;;26.05;13.30;;;;;;;5.98;97.62;100638.95;1682259;85;21883;-81
2021/12/11 12:34:09;;;;;;;22.30;11.33;;;;;;;5.93;97.85;100654.30;1683077;85;21328;-81
2021/12/11 12:37:15;;;;;;;20.72;10.53;;;;;;;5.89;98.09;100648.75;1682756;85;21796;-81
2021/12/11 12:40:33;;;;;;;18.90;10.98;;;;;;;5.82;98.48;100653.85;1682083;85;21205;-80
2021/12/11 12:47:03;;;;;;;27.45;15.00;;;;;;;5.76;99.49;100658.98;1682082;85;21200;-81
2021/12/11 12:50:13;;;;;;;34.13;19.00;;;;;;;5.74;99.98;100667.27;1681939;85;21895;-81
2021/12/11 12:53:19;;;;;;;25.17;16.10;;;;;;;5.75;100.00;100664.06;1682117;85;21846;-81
2021/12/11 12:56:35;;;;;;;33.35;15.10;;;;;;;5.69;100.00;100668.16;1681982;85;21328;-81
2021/12/11 12:59:43;;;;;;;20.20;11.83;;;;;;;5.64;100.00;100670.42;1682175;85;21328;-81
2021/12/11 13:02:50;;;;;;;23.73;12.55;;;;;;;5.58;100.00;100679.11;1682234;85;21252;-81
2021/12/11 13:06:06;;;;;;;32.80;16.60;;;;;;;5.53;100.00;100682.23;1683200;85;21733;-81
2021/12/11 13:09:21;;;;;;;37.35;19.20;;;;;;;5.52;100.00;100687.80;1683075;85;21181;-81
2021/12/11 13:12:36;;;;;;;33.80;19.05;;;;;;;5.51;100.00;100688.80;1681331;85;21399;-81
2021/12/11 13:15:55;;;;;;;34.65;17.23;;;;;;;5.45;100.00;100689.31;1680812;85;21213;-81
2021/12/11 13:19:21;;;;;;;21.93;12.47;;;;;;;5.37;100.00;100692.72;1682270;85;21311;-81
2021/12/11 13:22:31;;;;;;;19.02;12.05;;;;;;;5.28;100.00;100678.59;1679875;85;21228;-80
2021/12/11 13:25:43;;;;;;;25.08;14.90;;;;;;;5.22;100.00;100683.17;1680015;85;21327;-81
2021/12/11 13:28:54;;;;;;;22.05;14.05;;;;;;;5.19;100.00;100684.81;1680036;85;21474;-81
2021/12/11 13:32:06;;;;;;;32.48;15.58;;;;;;;5.17;100.00;100674.58;1680943;85;21355;-81
2021/12/11 13:35:27;;;;;;;34.18;15.70;;;;;;;5.15;100.00;100687.42;1682399;85;21829;-81
2021/12/11 13:38:35;;;;;;;33.85;18.32;;;;;;;5.12;100.00;100689.89;1682327;85;21335;-81
2021/12/11 13:41:45;;;;;;;40.70;20.55;;;;;;;5.07;100.00;100694.85;1682316;85;21307;-80
2021/12/11 13:44:51;;;;;;;45.70;26.68;;;;;;;5.01;100.00;100685.40;1682398;85;21335;-81
2021/12/11 13:47:56;;;;;;;42.48;23.85;;;;;;;4.99;100.00;100700.09;1682189;85;21208;-81
2021/12/11 13:51:06;;;;;;;45.33;25.10;;;;;;;4.98;100.00;100705.98;1682303;85;21804;-81
2021/12/11 13:54:11;;;;;;;38.70;20.57;;;;;;;4.98;100.00;100710.55;1682252;85;21296;-81
2021/12/11 13:57:24;;;;;;;27.40;15.18;;;;;;;4.95;100.00;100705.41;1682293;85;21213;-81
2021/12/11 14:00:32;;;;;;;29.48;15.23;;;;;;;4.86;100.00;100692.99;1681333;85;21403;-81
2021/12/11 14:03:40;;;;;;;28.12;14.83;;;;;;;4.76;100.00;100705.61;1681389;85;21366;-81
2021/12/11 14:06:57;;;;;;;29.00;16.02;;;;;;;4.68;100.00;100706.74;1682130;85;21209;-81
2021/12/11 14:10:03;;;;;;;32.48;16.32;;;;;;;4.66;100.00;100711.44;1681362;85;21323;-81
2021/12/11 14:13:10;;;;;;;41.63;20.65;;;;;;;4.67;100.00;100716.36;1673159;85;21325;-80
2021/12/11 14:16:16;;;;;;;50.95;25.32;;;;;;;4.68;100.00;100718.08;1670819;86;21880;-81
2021/12/11 14:19:21;;;;;;;78.85;38.73;;;;;;;4.69;100.00;100719.30;1632210;88;21329;-81
2021/12/11 14:22:27;;;;;;;77.08;43.25;;;;;;;4.68;100.00;100717.58;1674795;83;21692;-81
2021/12/11 14:25:33;;;;;;;76.05;38.65;;;;;;;4.68;100.00;100716.72;1740660;82;21143;-81
2021/12/11 14:28:39;;;;;;;61.80;32.45;;;;;;;4.65;100.00;100721.89;1745538;82;21288;-81
2021/12/11 14:31:46;;;;;;;64.47;32.70;;;;;;;4.61;100.00;100724.02;1731811;82;21223;-81
2021/12/11 14:34:52;;;;;;;68.92;32.58;;;;;;;4.58;100.00;100738.31;1738355;82;22197;-81